sensor_id;sensor_type;location;lat;lon;timestamp;P1;durP1;ratioP1;P2;durP2;ratioP2
20511;SDS011;10414;52.074;5.126;2023-04-24T00:01:23;3.75;;;2.15;;
20511;SDS011;10414;52.074;5.126;2023-04-24T00:03:51;4.78;;;2.50;;
20511;SDS011;10414;52.074;5.126;2023-04-24T00:06:18;5.65;;;2.92;;
20511;SDS011;10414;52.074;5.126;2023-04-24T00:08:45;5.30;;;3.13;;
20511;SDS011;10414;52.074;5.126;2023-04-24T00:11:12;7.80;;;3.10;;
20511;SDS011;10414;52.074;5.126;2023-04-24T00:13:39;5.57;;;3.15;;
20511;SDS011;10414;52.074;5.126;2023-04-24T00:16:06;4.63;;;2.80;;
20511;SDS011;10414;52.074;5.126;2023-04-24T00:18:33;6.28;;;3.30;;
20511;SDS011;10414;52.074;5.126;2023-04-24T00:21:01;6.13;;;2.97;;
20511;SDS011;10414;52.074;5.126;2023-04-24T00:23:28;5.07;;;3.00;;
20511;SDS011;10414;52.074;5.126;2023-04-24T00:25:54;5.57;;;3.30;;
20511;SDS011;10414;52.074;5.126;2023-04-24T00:28:21;6.00;;;2.83;;
20511;SDS011;10414;52.074;5.126;2023-04-24T00:30:48;6.07;;;2.70;;
20511;SDS011;10414;52.074;5.126;2023-04-24T00:33:15;4.35;;;2.65;;
20511;SDS011;10414;52.074;5.126;2023-04-24T00:35:42;5.28;;;2.70;;
20511;SDS011;10414;52.074;5.126;2023-04-24T00:38:10;6.00;;;3.10;;
20511;SDS011;10414;52.074;5.126;2023-04-24T00:40:37;6.53;;;3.55;;
20511;SDS011;10414;52.074;5.126;2023-04-24T00:43:04;8.50;;;3.97;;
20511;SDS011;10414;52.074;5.126;2023-04-24T00:45:31;6.82;;;3.75;;
20511;SDS011;10414;52.074;5.126;2023-04-24T00:47:58;8.15;;;4.45;;
20511;SDS011;10414;52.074;5.126;2023-04-24T00:50:26;7.57;;;3.92;;
20511;SDS011;10414;52.074;5.126;2023-04-24T00:52:54;7.90;;;4.60;;
20511;SDS011;10414;52.074;5.126;2023-04-24T00:55:22;9.68;;;5.10;;
20511;SDS011;10414;52.074;5.126;2023-04-24T00:57:49;8.70;;;4.30;;
20511;SDS011;10414;52.074;5.126;2023-04-24T01:00:16;11.23;;;5.72;;
20511;SDS011;10414;52.074;5.126;2023-04-24T01:02:44;12.13;;;5.50;;
20511;SDS011;10414;52.074;5.126;2023-04-24T01:05:12;10.82;;;5.72;;
20511;SDS011;10414;52.074;5.126;2023-04-24T01:07:40;10.38;;;5.65;;
20511;SDS011;10414;52.074;5.126;2023-04-24T01:10:10;11.43;;;5.95;;
20511;SDS011;10414;52.074;5.126;2023-04-24T01:12:40;11.80;;;6.15;;
20511;SDS011;10414;52.074;5.126;2023-04-24T01:15:07;10.25;;;5.55;;
20511;SDS011;10414;52.074;5.126;2023-04-24T01:17:35;11.90;;;5.75;;
20511;SDS011;10414;52.074;5.126;2023-04-24T01:20:03;11.90;;;5.93;;
20511;SDS011;10414;52.074;5.126;2023-04-24T01:22:33;8.85;;;4.82;;
20511;SDS011;10414;52.074;5.126;2023-04-24T01:25:00;7.88;;;4.70;;
20511;SDS011;10414;52.074;5.126;2023-04-24T01:27:27;9.73;;;4.80;;
20511;SDS011;10414;52.074;5.126;2023-04-24T01:29:54;8.98;;;4.63;;
20511;SDS011;10414;52.074;5.126;2023-04-24T01:32:21;10.57;;;4.93;;
20511;SDS011;10414;52.074;5.126;2023-04-24T01:34:48;10.73;;;4.45;;
20511;SDS011;10414;52.074;5.126;2023-04-24T01:37:16;8.98;;;4.63;;
20511;SDS011;10414;52.074;5.126;2023-04-24T01:39:44;9.32;;;4.85;;
20511;SDS011;10414;52.074;5.126;2023-04-24T01:42:11;8.98;;;5.13;;
20511;SDS011;10414;52.074;5.126;2023-04-24T01:44:39;9.88;;;5.05;;
20511;SDS011;10414;52.074;5.126;2023-04-24T01:47:06;10.13;;;4.95;;
20511;SDS011;10414;52.074;5.126;2023-04-24T01:49:33;8.35;;;4.88;;
20511;SDS011;10414;52.074;5.126;2023-04-24T01:52:00;8.77;;;4.72;;
20511;SDS011;10414;52.074;5.126;2023-04-24T01:54:27;8.77;;;4.40;;
20511;SDS011;10414;52.074;5.126;2023-04-24T01:56:55;7.93;;;3.80;;
20511;SDS011;10414;52.074;5.126;2023-04-24T01:59:22;9.02;;;3.58;;
20511;SDS011;10414;52.074;5.126;2023-04-24T02:01:51;8.55;;;3.80;;
20511;SDS011;10414;52.074;5.126;2023-04-24T02:04:18;8.57;;;3.83;;
20511;SDS011;10414;52.074;5.126;2023-04-24T02:06:44;8.25;;;4.00;;
20511;SDS011;10414;52.074;5.126;2023-04-24T02:09:11;7.13;;;3.70;;
20511;SDS011;10414;52.074;5.126;2023-04-24T02:11:38;7.55;;;3.42;;
20511;SDS011;10414;52.074;5.126;2023-04-24T02:14:06;7.50;;;3.50;;
20511;SDS011;10414;52.074;5.126;2023-04-24T02:16:33;7.28;;;3.60;;
20511;SDS011;10414;52.074;5.126;2023-04-24T02:19:01;5.88;;;3.13;;
20511;SDS011;10414;52.074;5.126;2023-04-24T02:21:27;7.47;;;3.55;;
20511;SDS011;10414;52.074;5.126;2023-04-24T02:23:55;7.32;;;3.45;;
20511;SDS011;10414;52.074;5.126;2023-04-24T02:26:23;7.15;;;3.42;;
20511;SDS011;10414;52.074;5.126;2023-04-24T02:28:50;6.25;;;3.53;;
20511;SDS011;10414;52.074;5.126;2023-04-24T02:31:18;6.97;;;3.42;;
20511;SDS011;10414;52.074;5.126;2023-04-24T02:33:45;6.28;;;3.20;;
20511;SDS011;10414;52.074;5.126;2023-04-24T02:36:11;7.90;;;3.63;;
20511;SDS011;10414;52.074;5.126;2023-04-24T02:38:39;7.68;;;3.75;;
20511;SDS011;10414;52.074;5.126;2023-04-24T02:41:06;6.68;;;3.28;;
20511;SDS011;10414;52.074;5.126;2023-04-24T02:43:33;8.13;;;4.00;;
20511;SDS011;10414;52.074;5.126;2023-04-24T02:45:59;8.55;;;4.40;;
20511;SDS011;10414;52.074;5.126;2023-04-24T02:48:28;7.95;;;4.30;;
20511;SDS011;10414;52.074;5.126;2023-04-24T02:50:55;11.13;;;4.15;;
20511;SDS011;10414;52.074;5.126;2023-04-24T02:53:22;9.27;;;4.53;;
20511;SDS011;10414;52.074;5.126;2023-04-24T02:55:49;8.45;;;4.57;;
20511;SDS011;10414;52.074;5.126;2023-04-24T02:58:16;10.85;;;5.38;;
20511;SDS011;10414;52.074;5.126;2023-04-24T03:00:45;10.15;;;5.20;;
20511;SDS011;10414;52.074;5.126;2023-04-24T03:03:12;12.23;;;6.38;;
20511;SDS011;10414;52.074;5.126;2023-04-24T03:05:40;12.63;;;6.35;;
20511;SDS011;10414;52.074;5.126;2023-04-24T03:08:07;12.27;;;5.88;;
20511;SDS011;10414;52.074;5.126;2023-04-24T03:10:34;11.65;;;6.00;;
20511;SDS011;10414;52.074;5.126;2023-04-24T03:13:00;14.75;;;6.47;;
20511;SDS011;10414;52.074;5.126;2023-04-24T03:15:27;10.60;;;5.38;;
20511;SDS011;10414;52.074;5.126;2023-04-24T03:17:54;11.75;;;6.10;;
20511;SDS011;10414;52.074;5.126;2023-04-24T03:20:21;11.00;;;5.35;;
20511;SDS011;10414;52.074;5.126;2023-04-24T03:22:49;9.40;;;5.47;;
20511;SDS011;10414;52.074;5.126;2023-04-24T03:25:16;12.45;;;5.45;;
20511;SDS011;10414;52.074;5.126;2023-04-24T03:27:43;12.00;;;5.72;;
20511;SDS011;10414;52.074;5.126;2023-04-24T03:30:10;9.80;;;5.28;;
20511;SDS011;10414;52.074;5.126;2023-04-24T03:32:37;11.80;;;5.60;;
20511;SDS011;10414;52.074;5.126;2023-04-24T03:35:04;10.15;;;6.20;;
20511;SDS011;10414;52.074;5.126;2023-04-24T03:37:32;10.48;;;5.93;;
20511;SDS011;10414;52.074;5.126;2023-04-24T03:40:00;11.63;;;6.15;;
20511;SDS011;10414;52.074;5.126;2023-04-24T03:42:27;15.63;;;6.43;;
20511;SDS011;10414;52.074;5.126;2023-04-24T03:44:54;11.07;;;5.63;;
20511;SDS011;10414;52.074;5.126;2023-04-24T03:47:20;10.60;;;5.15;;
20511;SDS011;10414;52.074;5.126;2023-04-24T03:49:47;11.07;;;4.90;;
20511;SDS011;10414;52.074;5.126;2023-04-24T03:52:14;9.43;;;3.97;;
20511;SDS011;10414;52.074;5.126;2023-04-24T03:54:41;8.88;;;4.07;;
20511;SDS011;10414;52.074;5.126;2023-04-24T03:57:09;9.60;;;4.40;;
20511;SDS011;10414;52.074;5.126;2023-04-24T03:59:36;9.05;;;3.95;;
20511;SDS011;10414;52.074;5.126;2023-04-24T04:02:02;11.48;;;5.25;;
20511;SDS011;10414;52.074;5.126;2023-04-24T04:04:29;10.63;;;4.70;;
20511;SDS011;10414;52.074;5.126;2023-04-24T04:06:56;9.00;;;4.60;;
20511;SDS011;10414;52.074;5.126;2023-04-24T04:09:26;10.73;;;4.70;;
20511;SDS011;10414;52.074;5.126;2023-04-24T04:11:53;9.80;;;4.68;;
20511;SDS011;10414;52.074;5.126;2023-04-24T04:14:21;11.20;;;4.80;;
20511;SDS011;10414;52.074;5.126;2023-04-24T04:16:48;9.77;;;4.05;;
20511;SDS011;10414;52.074;5.126;2023-04-24T04:19:15;8.57;;;4.15;;
20511;SDS011;10414;52.074;5.126;2023-04-24T04:21:42;9.43;;;4.13;;
20511;SDS011;10414;52.074;5.126;2023-04-24T04:24:10;6.82;;;3.67;;
20511;SDS011;10414;52.074;5.126;2023-04-24T04:26:37;7.65;;;4.07;;
20511;SDS011;10414;52.074;5.126;2023-04-24T04:29:05;8.25;;;3.70;;
20511;SDS011;10414;52.074;5.126;2023-04-24T04:31:34;6.63;;;3.30;;
20511;SDS011;10414;52.074;5.126;2023-04-24T04:34:01;7.78;;;3.60;;
20511;SDS011;10414;52.074;5.126;2023-04-24T04:36:28;9.52;;;4.70;;
20511;SDS011;10414;52.074;5.126;2023-04-24T04:38:56;11.02;;;4.43;;
20511;SDS011;10414;52.074;5.126;2023-04-24T04:41:24;10.05;;;4.38;;
20511;SDS011;10414;52.074;5.126;2023-04-24T04:43:51;10.60;;;4.70;;
20511;SDS011;10414;52.074;5.126;2023-04-24T04:46:18;9.13;;;4.43;;
20511;SDS011;10414;52.074;5.126;2023-04-24T04:48:46;9.10;;;4.40;;
20511;SDS011;10414;52.074;5.126;2023-04-24T04:51:13;11.93;;;5.25;;
20511;SDS011;10414;52.074;5.126;2023-04-24T04:53:39;10.65;;;4.85;;
20511;SDS011;10414;52.074;5.126;2023-04-24T04:56:06;10.18;;;4.38;;
20511;SDS011;10414;52.074;5.126;2023-04-24T04:58:33;11.02;;;4.05;;
20511;SDS011;10414;52.074;5.126;2023-04-24T05:01:00;8.43;;;3.70;;
20511;SDS011;10414;52.074;5.126;2023-04-24T05:03:27;6.45;;;2.67;;
20511;SDS011;10414;52.074;5.126;2023-04-24T05:05:56;5.60;;;2.47;;
20511;SDS011;10414;52.074;5.126;2023-04-24T05:08:24;6.20;;;2.23;;
20511;SDS011;10414;52.074;5.126;2023-04-24T05:10:50;4.75;;;1.92;;
20511;SDS011;10414;52.074;5.126;2023-04-24T05:13:17;5.65;;;1.95;;
20511;SDS011;10414;52.074;5.126;2023-04-24T05:15:44;4.93;;;1.60;;
20511;SDS011;10414;52.074;5.126;2023-04-24T05:18:11;4.38;;;1.58;;
20511;SDS011;10414;52.074;5.126;2023-04-24T05:20:38;3.35;;;1.10;;
20511;SDS011;10414;52.074;5.126;2023-04-24T05:23:06;3.63;;;1.33;;
20511;SDS011;10414;52.074;5.126;2023-04-24T05:25:33;3.80;;;1.40;;
20511;SDS011;10414;52.074;5.126;2023-04-24T05:28:00;3.10;;;0.90;;
20511;SDS011;10414;52.074;5.126;2023-04-24T05:30:27;1.90;;;0.70;;
20511;SDS011;10414;52.074;5.126;2023-04-24T05:32:54;2.35;;;0.90;;
20511;SDS011;10414;52.074;5.126;2023-04-24T05:35:21;2.10;;;0.90;;
20511;SDS011;10414;52.074;5.126;2023-04-24T05:37:48;1.92;;;0.75;;
20511;SDS011;10414;52.074;5.126;2023-04-24T05:40:16;2.45;;;0.80;;
20511;SDS011;10414;52.074;5.126;2023-04-24T05:42:43;2.65;;;1.00;;
20511;SDS011;10414;52.074;5.126;2023-04-24T05:45:10;2.75;;;0.80;;
20511;SDS011;10414;52.074;5.126;2023-04-24T05:47:41;5.70;;;1.30;;
20511;SDS011;10414;52.074;5.126;2023-04-24T05:50:08;3.92;;;1.30;;
20511;SDS011;10414;52.074;5.126;2023-04-24T05:52:36;4.07;;;1.88;;
20511;SDS011;10414;52.074;5.126;2023-04-24T05:55:03;6.25;;;2.00;;
20511;SDS011;10414;52.074;5.126;2023-04-24T05:57:31;8.68;;;2.65;;
20511;SDS011;10414;52.074;5.126;2023-04-24T05:59:58;8.00;;;2.60;;
20511;SDS011;10414;52.074;5.126;2023-04-24T06:02:25;7.38;;;3.03;;
20511;SDS011;10414;52.074;5.126;2023-04-24T06:04:52;4.50;;;2.08;;
20511;SDS011;10414;52.074;5.126;2023-04-24T06:07:20;6.05;;;2.17;;
20511;SDS011;10414;52.074;5.126;2023-04-24T06:09:47;6.57;;;2.53;;
20511;SDS011;10414;52.074;5.126;2023-04-24T06:12:14;9.23;;;3.88;;
20511;SDS011;10414;52.074;5.126;2023-04-24T06:14:42;9.30;;;4.65;;
20511;SDS011;10414;52.074;5.126;2023-04-24T06:17:08;11.60;;;5.60;;
20511;SDS011;10414;52.074;5.126;2023-04-24T06:19:35;20.17;;;8.15;;
20511;SDS011;10414;52.074;5.126;2023-04-24T06:22:02;16.45;;;8.10;;
20511;SDS011;10414;52.074;5.126;2023-04-24T06:24:29;18.05;;;8.65;;
20511;SDS011;10414;52.074;5.126;2023-04-24T06:26:56;26.38;;;11.27;;
20511;SDS011;10414;52.074;5.126;2023-04-24T06:29:25;20.98;;;10.30;;
20511;SDS011;10414;52.074;5.126;2023-04-24T06:31:53;25.50;;;11.55;;
20511;SDS011;10414;52.074;5.126;2023-04-24T06:34:20;29.70;;;13.00;;
20511;SDS011;10414;52.074;5.126;2023-04-24T06:36:46;25.77;;;12.98;;
20511;SDS011;10414;52.074;5.126;2023-04-24T06:39:13;27.00;;;13.45;;
20511;SDS011;10414;52.074;5.126;2023-04-24T06:41:40;27.73;;;11.80;;
20511;SDS011;10414;52.074;5.126;2023-04-24T06:44:07;26.73;;;11.93;;
20511;SDS011;10414;52.074;5.126;2023-04-24T06:46:34;32.13;;;13.05;;
20511;SDS011;10414;52.074;5.126;2023-04-24T06:49:02;28.13;;;11.25;;
20511;SDS011;10414;52.074;5.126;2023-04-24T06:51:29;28.65;;;11.57;;
20511;SDS011;10414;52.074;5.126;2023-04-24T06:53:58;25.10;;;11.80;;
20511;SDS011;10414;52.074;5.126;2023-04-24T06:56:25;23.48;;;10.82;;
20511;SDS011;10414;52.074;5.126;2023-04-24T06:58:54;28.77;;;11.05;;
20511;SDS011;10414;52.074;5.126;2023-04-24T07:01:21;23.27;;;10.18;;
20511;SDS011;10414;52.074;5.126;2023-04-24T07:03:48;29.08;;;11.02;;
20511;SDS011;10414;52.074;5.126;2023-04-24T07:06:16;19.13;;;9.25;;
20511;SDS011;10414;52.074;5.126;2023-04-24T07:08:46;22.73;;;9.05;;
20511;SDS011;10414;52.074;5.126;2023-04-24T07:11:13;25.33;;;10.60;;
20511;SDS011;10414;52.074;5.126;2023-04-24T07:13:40;22.17;;;9.25;;
20511;SDS011;10414;52.074;5.126;2023-04-24T07:16:07;25.08;;;8.90;;
20511;SDS011;10414;52.074;5.126;2023-04-24T07:18:34;24.60;;;8.80;;
20511;SDS011;10414;52.074;5.126;2023-04-24T07:21:01;25.75;;;9.05;;
20511;SDS011;10414;52.074;5.126;2023-04-24T07:23:30;28.98;;;8.05;;
20511;SDS011;10414;52.074;5.126;2023-04-24T07:25:56;24.20;;;8.05;;
20511;SDS011;10414;52.074;5.126;2023-04-24T07:28:23;22.00;;;8.88;;
20511;SDS011;10414;52.074;5.126;2023-04-24T07:30:50;26.58;;;7.88;;
20511;SDS011;10414;52.074;5.126;2023-04-24T07:33:19;26.02;;;6.75;;
20511;SDS011;10414;52.074;5.126;2023-04-24T07:35:46;20.52;;;6.95;;
20511;SDS011;10414;52.074;5.126;2023-04-24T07:38:13;21.40;;;6.55;;
20511;SDS011;10414;52.074;5.126;2023-04-24T07:40:41;21.10;;;6.88;;
20511;SDS011;10414;52.074;5.126;2023-04-24T07:43:08;18.60;;;6.35;;
20511;SDS011;10414;52.074;5.126;2023-04-24T07:45:35;16.92;;;6.63;;
20511;SDS011;10414;52.074;5.126;2023-04-24T07:48:02;22.33;;;6.60;;
20511;SDS011;10414;52.074;5.126;2023-04-24T07:50:29;18.60;;;7.30;;
20511;SDS011;10414;52.074;5.126;2023-04-24T07:52:56;20.38;;;5.43;;
20511;SDS011;10414;52.074;5.126;2023-04-24T07:55:23;25.25;;;5.85;;
20511;SDS011;10414;52.074;5.126;2023-04-24T07:57:51;21.17;;;5.40;;
20511;SDS011;10414;52.074;5.126;2023-04-24T08:00:18;13.00;;;3.88;;
20511;SDS011;10414;52.074;5.126;2023-04-24T08:02:45;12.68;;;3.90;;
20511;SDS011;10414;52.074;5.126;2023-04-24T08:05:12;16.55;;;4.03;;
20511;SDS011;10414;52.074;5.126;2023-04-24T08:07:39;16.85;;;3.70;;
20511;SDS011;10414;52.074;5.126;2023-04-24T08:10:07;18.30;;;3.95;;
20511;SDS011;10414;52.074;5.126;2023-04-24T08:12:36;17.98;;;4.03;;
20511;SDS011;10414;52.074;5.126;2023-04-24T08:15:05;17.05;;;3.22;;
20511;SDS011;10414;52.074;5.126;2023-04-24T08:17:33;19.75;;;3.30;;
20511;SDS011;10414;52.074;5.126;2023-04-24T08:20:00;15.55;;;3.13;;
20511;SDS011;10414;52.074;5.126;2023-04-24T08:22:27;15.95;;;3.22;;
20511;SDS011;10414;52.074;5.126;2023-04-24T08:24:54;11.73;;;2.28;;
20511;SDS011;10414;52.074;5.126;2023-04-24T08:27:22;13.30;;;2.00;;
20511;SDS011;10414;52.074;5.126;2023-04-24T08:29:49;7.00;;;2.20;;
20511;SDS011;10414;52.074;5.126;2023-04-24T08:32:17;12.80;;;2.30;;
20511;SDS011;10414;52.074;5.126;2023-04-24T08:34:44;10.18;;;2.20;;
20511;SDS011;10414;52.074;5.126;2023-04-24T08:37:11;14.20;;;2.13;;
20511;SDS011;10414;52.074;5.126;2023-04-24T08:39:39;10.10;;;2.15;;
20511;SDS011;10414;52.074;5.126;2023-04-24T08:42:06;12.63;;;2.20;;
20511;SDS011;10414;52.074;5.126;2023-04-24T08:44:34;9.07;;;2.58;;
20511;SDS011;10414;52.074;5.126;2023-04-24T08:47:02;8.52;;;2.20;;
20511;SDS011;10414;52.074;5.126;2023-04-24T08:49:30;10.95;;;2.35;;
20511;SDS011;10414;52.074;5.126;2023-04-24T08:51:57;8.98;;;2.03;;
20511;SDS011;10414;52.074;5.126;2023-04-24T08:54:25;9.05;;;2.13;;
20511;SDS011;10414;52.074;5.126;2023-04-24T08:56:53;11.55;;;2.85;;
20511;SDS011;10414;52.074;5.126;2023-04-24T08:59:22;14.15;;;2.85;;
20511;SDS011;10414;52.074;5.126;2023-04-24T09:01:49;12.65;;;2.75;;
20511;SDS011;10414;52.074;5.126;2023-04-24T09:04:18;10.85;;;2.25;;
20511;SDS011;10414;52.074;5.126;2023-04-24T09:06:50;8.15;;;2.22;;
20511;SDS011;10414;52.074;5.126;2023-04-24T09:09:18;10.23;;;1.95;;
20511;SDS011;10414;52.074;5.126;2023-04-24T09:11:45;8.43;;;2.05;;
20511;SDS011;10414;52.074;5.126;2023-04-24T09:14:13;10.95;;;2.30;;
20511;SDS011;10414;52.074;5.126;2023-04-24T09:16:40;15.35;;;2.47;;
20511;SDS011;10414;52.074;5.126;2023-04-24T09:19:07;9.48;;;2.35;;
20511;SDS011;10414;52.074;5.126;2023-04-24T09:21:35;7.85;;;2.20;;
20511;SDS011;10414;52.074;5.126;2023-04-24T09:24:04;8.52;;;2.10;;
20511;SDS011;10414;52.074;5.126;2023-04-24T09:26:32;8.00;;;2.45;;
20511;SDS011;10414;52.074;5.126;2023-04-24T09:29:02;8.38;;;2.40;;
20511;SDS011;10414;52.074;5.126;2023-04-24T09:31:30;10.95;;;1.80;;
20511;SDS011;10414;52.074;5.126;2023-04-24T09:33:57;12.52;;;2.00;;
20511;SDS011;10414;52.074;5.126;2023-04-24T09:36:29;10.80;;;1.60;;
20511;SDS011;10414;52.074;5.126;2023-04-24T09:38:58;10.43;;;1.90;;
20511;SDS011;10414;52.074;5.126;2023-04-24T09:41:27;7.18;;;1.88;;
20511;SDS011;10414;52.074;5.126;2023-04-24T09:43:55;11.80;;;2.20;;
20511;SDS011;10414;52.074;5.126;2023-04-24T09:46:29;7.38;;;2.03;;
20511;SDS011;10414;52.074;5.126;2023-04-24T09:48:57;7.80;;;1.85;;
20511;SDS011;10414;52.074;5.126;2023-04-24T09:51:33;4.75;;;1.40;;
20511;SDS011;10414;52.074;5.126;2023-04-24T09:54:01;5.93;;;1.38;;
20511;SDS011;10414;52.074;5.126;2023-04-24T09:56:29;7.88;;;1.80;;
20511;SDS011;10414;52.074;5.126;2023-04-24T09:59:04;6.47;;;1.58;;
20511;SDS011;10414;52.074;5.126;2023-04-24T10:01:31;9.55;;;1.40;;
20511;SDS011;10414;52.074;5.126;2023-04-24T10:03:58;11.23;;;1.60;;
20511;SDS011;10414;52.074;5.126;2023-04-24T10:06:29;8.75;;;1.35;;
20511;SDS011;10414;52.074;5.126;2023-04-24T10:08:58;7.43;;;1.40;;
20511;SDS011;10414;52.074;5.126;2023-04-24T10:11:26;6.35;;;1.38;;
20511;SDS011;10414;52.074;5.126;2023-04-24T10:13:55;5.25;;;1.08;;
20511;SDS011;10414;52.074;5.126;2023-04-24T10:16:22;5.55;;;1.15;;
20511;SDS011;10414;52.074;5.126;2023-04-24T10:18:52;3.28;;;1.10;;
20511;SDS011;10414;52.074;5.126;2023-04-24T10:21:19;4.03;;;0.80;;
20511;SDS011;10414;52.074;5.126;2023-04-24T10:23:46;4.53;;;0.93;;
20511;SDS011;10414;52.074;5.126;2023-04-24T10:26:15;6.07;;;1.20;;
20511;SDS011;10414;52.074;5.126;2023-04-24T10:28:44;5.30;;;1.10;;
20511;SDS011;10414;52.074;5.126;2023-04-24T10:31:13;4.93;;;1.00;;
20511;SDS011;10414;52.074;5.126;2023-04-24T10:33:41;5.70;;;0.90;;
20511;SDS011;10414;52.074;5.126;2023-04-24T10:36:10;5.13;;;1.00;;
20511;SDS011;10414;52.074;5.126;2023-04-24T10:38:39;4.47;;;0.90;;
20511;SDS011;10414;52.074;5.126;2023-04-24T10:41:08;3.75;;;0.90;;
20511;SDS011;10414;52.074;5.126;2023-04-24T10:43:41;7.90;;;0.90;;
20511;SDS011;10414;52.074;5.126;2023-04-24T10:46:08;4.78;;;1.20;;
20511;SDS011;10414;52.074;5.126;2023-04-24T10:48:37;3.97;;;0.60;;
20511;SDS011;10414;52.074;5.126;2023-04-24T10:51:10;6.13;;;0.90;;
20511;SDS011;10414;52.074;5.126;2023-04-24T10:53:38;2.67;;;0.80;;
20511;SDS011;10414;52.074;5.126;2023-04-24T10:56:05;4.97;;;0.80;;
20511;SDS011;10414;52.074;5.126;2023-04-24T10:58:38;4.55;;;0.90;;
20511;SDS011;10414;52.074;5.126;2023-04-24T11:01:09;2.75;;;0.85;;
20511;SDS011;10414;52.074;5.126;2023-04-24T11:03:54;4.25;;;1.00;;
20511;SDS011;10414;52.074;5.126;2023-04-24T11:06:28;5.22;;;1.00;;
20511;SDS011;10414;52.074;5.126;2023-04-24T11:08:59;7.07;;;1.90;;
20511;SDS011;10414;52.074;5.126;2023-04-24T11:11:29;8.10;;;1.40;;
20511;SDS011;10414;52.074;5.126;2023-04-24T11:14:06;3.67;;;0.70;;
20511;SDS011;10414;52.074;5.126;2023-04-24T11:16:43;4.32;;;1.10;;
20511;SDS011;10414;52.074;5.126;2023-04-24T11:19:21;6.40;;;1.25;;
20511;SDS011;10414;52.074;5.126;2023-04-24T11:21:54;8.52;;;1.38;;
20511;SDS011;10414;52.074;5.126;2023-04-24T11:27:16;3.10;;;0.90;;
20511;SDS011;10414;52.074;5.126;2023-04-24T11:29:46;3.70;;;0.80;;
20511;SDS011;10414;52.074;5.126;2023-04-24T11:32:23;3.58;;;0.60;;
20511;SDS011;10414;52.074;5.126;2023-04-24T11:34:53;3.63;;;0.88;;
20511;SDS011;10414;52.074;5.126;2023-04-24T11:37:21;4.40;;;0.97;;
20511;SDS011;10414;52.074;5.126;2023-04-24T11:39:50;3.97;;;0.60;;
20511;SDS011;10414;52.074;5.126;2023-04-24T11:42:18;4.20;;;0.73;;
20511;SDS011;10414;52.074;5.126;2023-04-24T11:44:47;4.50;;;0.98;;
20511;SDS011;10414;52.074;5.126;2023-04-24T11:47:15;4.78;;;0.90;;
20511;SDS011;10414;52.074;5.126;2023-04-24T11:49:42;3.90;;;0.80;;
20511;SDS011;10414;52.074;5.126;2023-04-24T11:52:10;5.95;;;1.05;;
20511;SDS011;10414;52.074;5.126;2023-04-24T11:54:37;8.77;;;1.10;;
20511;SDS011;10414;52.074;5.126;2023-04-24T11:57:04;7.57;;;1.10;;
20511;SDS011;10414;52.074;5.126;2023-04-24T11:59:35;9.40;;;0.88;;
20511;SDS011;10414;52.074;5.126;2023-04-24T12:02:02;5.22;;;1.10;;
20511;SDS011;10414;52.074;5.126;2023-04-24T12:04:37;2.80;;;0.70;;
20511;SDS011;10414;52.074;5.126;2023-04-24T12:07:05;3.95;;;0.88;;
20511;SDS011;10414;52.074;5.126;2023-04-24T12:09:44;4.95;;;0.95;;
20511;SDS011;10414;52.074;5.126;2023-04-24T12:12:13;7.43;;;1.50;;
20511;SDS011;10414;52.074;5.126;2023-04-24T12:14:44;3.67;;;1.20;;
20511;SDS011;10414;52.074;5.126;2023-04-24T12:17:13;7.32;;;1.70;;
20511;SDS011;10414;52.074;5.126;2023-04-24T12:19:44;6.22;;;1.17;;
20511;SDS011;10414;52.074;5.126;2023-04-24T12:22:12;8.82;;;1.30;;
20511;SDS011;10414;52.074;5.126;2023-04-24T12:27:23;9.23;;;1.92;;
20511;SDS011;10414;52.074;5.126;2023-04-24T12:29:53;7.95;;;1.60;;
20511;SDS011;10414;52.074;5.126;2023-04-24T12:32:22;5.55;;;1.65;;
20511;SDS011;10414;52.074;5.126;2023-04-24T12:34:50;7.63;;;1.50;;
20511;SDS011;10414;52.074;5.126;2023-04-24T12:37:17;5.00;;;1.30;;
20511;SDS011;10414;52.074;5.126;2023-04-24T12:39:46;8.63;;;1.27;;
20511;SDS011;10414;52.074;5.126;2023-04-24T12:42:31;10.00;;;1.67;;
20511;SDS011;10414;52.074;5.126;2023-04-24T12:44:59;7.30;;;1.23;;
20511;SDS011;10414;52.074;5.126;2023-04-24T12:47:27;5.72;;;1.55;;
20511;SDS011;10414;52.074;5.126;2023-04-24T12:49:55;14.00;;;1.50;;
20511;SDS011;10414;52.074;5.126;2023-04-24T12:52:22;11.02;;;1.52;;
20511;SDS011;10414;52.074;5.126;2023-04-24T12:54:52;8.85;;;1.77;;
20511;SDS011;10414;52.074;5.126;2023-04-24T12:57:20;8.75;;;1.40;;
20511;SDS011;10414;52.074;5.126;2023-04-24T12:59:48;7.75;;;1.67;;
20511;SDS011;10414;52.074;5.126;2023-04-24T13:02:15;11.57;;;1.70;;
20511;SDS011;10414;52.074;5.126;2023-04-24T13:04:43;10.93;;;2.22;;
20511;SDS011;10414;52.074;5.126;2023-04-24T13:07:11;9.82;;;1.73;;
20511;SDS011;10414;52.074;5.126;2023-04-24T13:09:39;8.48;;;1.58;;
20511;SDS011;10414;52.074;5.126;2023-04-24T13:12:06;14.90;;;2.47;;
20511;SDS011;10414;52.074;5.126;2023-04-24T13:14:34;15.93;;;1.95;;
20511;SDS011;10414;52.074;5.126;2023-04-24T13:17:01;11.02;;;2.00;;
20511;SDS011;10414;52.074;5.126;2023-04-24T13:19:28;12.18;;;2.40;;
20511;SDS011;10414;52.074;5.126;2023-04-24T13:21:56;6.63;;;1.67;;
20511;SDS011;10414;52.074;5.126;2023-04-24T13:24:24;9.40;;;1.75;;
20511;SDS011;10414;52.074;5.126;2023-04-24T13:26:51;10.02;;;2.10;;
20511;SDS011;10414;52.074;5.126;2023-04-24T13:29:18;8.40;;;1.73;;
20511;SDS011;10414;52.074;5.126;2023-04-24T13:31:47;10.80;;;2.08;;
20511;SDS011;10414;52.074;5.126;2023-04-24T13:36:43;9.05;;;2.00;;
20511;SDS011;10414;52.074;5.126;2023-04-24T13:39:10;8.55;;;1.50;;
20511;SDS011;10414;52.074;5.126;2023-04-24T13:41:37;8.65;;;1.90;;
20511;SDS011;10414;52.074;5.126;2023-04-24T13:44:06;11.63;;;1.80;;
20511;SDS011;10414;52.074;5.126;2023-04-24T13:46:33;8.40;;;1.95;;
20511;SDS011;10414;52.074;5.126;2023-04-24T13:49:01;7.32;;;2.03;;
20511;SDS011;10414;52.074;5.126;2023-04-24T13:51:29;11.48;;;2.72;;
20511;SDS011;10414;52.074;5.126;2023-04-24T13:53:56;8.93;;;2.17;;
20511;SDS011;10414;52.074;5.126;2023-04-24T13:56:23;11.73;;;2.47;;
20511;SDS011;10414;52.074;5.126;2023-04-24T13:58:50;10.93;;;2.17;;
20511;SDS011;10414;52.074;5.126;2023-04-24T14:01:16;10.00;;;2.03;;
20511;SDS011;10414;52.074;5.126;2023-04-24T14:03:43;11.40;;;2.42;;
20511;SDS011;10414;52.074;5.126;2023-04-24T14:06:11;9.55;;;1.80;;
20511;SDS011;10414;52.074;5.126;2023-04-24T14:08:38;10.50;;;2.25;;
20511;SDS011;10414;52.074;5.126;2023-04-24T14:11:05;7.82;;;2.30;;
20511;SDS011;10414;52.074;5.126;2023-04-24T14:13:32;10.68;;;2.33;;
20511;SDS011;10414;52.074;5.126;2023-04-24T14:15:59;11.65;;;2.60;;
20511;SDS011;10414;52.074;5.126;2023-04-24T14:18:26;9.73;;;2.35;;
20511;SDS011;10414;52.074;5.126;2023-04-24T14:20:53;13.93;;;2.55;;
20511;SDS011;10414;52.074;5.126;2023-04-24T14:23:22;11.90;;;2.78;;
20511;SDS011;10414;52.074;5.126;2023-04-24T14:25:49;11.52;;;2.80;;
20511;SDS011;10414;52.074;5.126;2023-04-24T14:28:17;10.73;;;2.28;;
20511;SDS011;10414;52.074;5.126;2023-04-24T14:30:45;9.68;;;2.17;;
20511;SDS011;10414;52.074;5.126;2023-04-24T14:33:11;9.45;;;2.15;;
20511;SDS011;10414;52.074;5.126;2023-04-24T14:35:39;12.70;;;2.90;;
20511;SDS011;10414;52.074;5.126;2023-04-24T14:38:07;12.88;;;3.38;;
20511;SDS011;10414;52.074;5.126;2023-04-24T14:40:36;15.30;;;2.58;;
20511;SDS011;10414;52.074;5.126;2023-04-24T14:43:03;9.60;;;2.55;;
20511;SDS011;10414;52.074;5.126;2023-04-24T14:45:30;9.02;;;2.63;;
20511;SDS011;10414;52.074;5.126;2023-04-24T14:47:57;14.45;;;3.10;;
20511;SDS011;10414;52.074;5.126;2023-04-24T14:50:24;10.13;;;2.53;;
20511;SDS011;10414;52.074;5.126;2023-04-24T14:52:53;11.25;;;2.58;;